Aviation Digital Data Service (ADDS)

Output produced by METARs form (1714 UTC 18 February 2019)
found at http://www.aviationweather.gov/metar/data/
 
CYYZ 181700Z 33013KT 15SM FEW020 FEW050 FEW110 SCT200 M07/M12 A3013 RMK CF1SC1AC1CI1 CF TR SLP214
CYYZ 181600Z CCA 35011KT 15SM DRSN FEW014 SCT019 BKN050 M08/M11 A3009 RMK CU1SC3SC3 /S02/ SLP203
CYYZ 181529Z 36012KT 6SM -SN DRSN OVC017 M09/M12 A3008 RMK SN2SC6 SLP198
CYYZ 181500Z 36010KT 2SM -SN DRSN OVC017 M09/M12 A3007 RMK SN4SC4 SLP194
CYYZ 181449Z 36011KT 2SM -SN DRSN OVC016 M09/M12 A3006 RMK SN4SC4 SLP192
TAF CYYZ 181438Z 1815/1918 01012G22KT 11/2SM -SN OVC010 
     TEMPO 1815/1816 5SM -SN OVC030 
     FM181530 36012G22KT P6SM -SN SCT020 OVC060 
     TEMPO 1815/1816 3SM -SN OVC020 
     FM181600 35015KT P6SM FEW020 BKN090 
     TEMPO 1816/1818 P6SM -SN BKN020 OVC090 
     FM182000 34015KT P6SM FEW110 
     BECMG 1900/1902 32010KT SKC 
     FM190400 30005KT P6SM SKC 
     FM191100 VRB03KT P6SM SCT015 
     BECMG 1914/1916 26010KT FEW030 RMK NXT FCST BY 181800Z
       
CYKF 181700Z AUTO 32008KT 290V360 9SM OVC038 M07/M13 A3010 RMK SLP213
CYKF 181642Z AUTO 33008KT 9SM OVC040 M08/M13 A3009 RMK SLP212
CYKF 181626Z AUTO 33011KT 9SM -SN OVC042 M08/M13 A3008 RMK SLP208
CYKF 181623Z AUTO 33009KT 9SM FEW024 OVC042 M08/M13 A3008 RMK SLP208
CYKF 181600Z AUTO 33008KT 9SM -SN BKN034 OVC044 M08/M12 A3007 RMK SLP203
CYKF 181550Z AUTO 34009KT 9SM -SN OVC041 M09/M13 A3006 RMK SLP201
CYKF 181535Z AUTO 36006KT 9SM BKN041 OVC047 M09/M13 A3005 RMK SLP199
CYKF 181531Z AUTO 35006KT 6SM -SN BKN038 OVC046 M09/M13 A3005 RMK SLP198
CYKF 181527Z AUTO 35007KT 3SM -SN OVC038 M09/M13 A3005 RMK SLP198
CYKF 181519Z AUTO 35007KT 2 1/2SM -SN OVC036 M09/M12 A3005 RMK VIS VRB 2-3 SLP197
CYKF 181500Z AUTO 36007KT 4SM -SN OVC040 M09/M13 A3004 RMK SLP193
CYKF 181453Z AUTO 35007KT 5SM -SN FEW037 OVC044 M09/M13 A3003 RMK SLP192
CYKF 181422Z AUTO 35006KT 6SM -SN FEW034 BKN040 OVC050 M10/M13 A3002 RMK SLP188
TAF AMD CYKF 181522Z 1815/1902 36010G20KT 2SM -SN OVC020 
     TEMPO 1815/1816 P6SM -SN BKN025 OVC050 
     FM181600 35015KT P6SM FEW015 BKN080 
     TEMPO 1816/1817 5SM -SN BKN015 BKN080 
     FM181900 33015KT P6SM FEW020 FEW120 
     FM190000 32010KT P6SM SKC RMK FCST BASED ON AUTO OBS. NXT FCST BY 182000Z
       
CYBN 181700Z AUTO 32010KT 300V360 9SM FEW068 FEW075 FEW081 M08/M14 A3013 RMK PCPN 0.5MM PAST HR SLP218
CYBN 181600Z AUTO 34009KT 290V010 9SM FEW059 SCT066 OVC077 OVC094 M09/M15 A3011 RMK SLP212
CYBN 181500Z AUTO 36008KT 330V030 9SM FEW045 OVC059 OVC090 M09/M15 A3008 RMK SLP202
TAF CYBN 181130Z 1812/1824 01006KT 6SM -SN OVC025 
     TEMPO 1812/1814 1SM -SN VV008 
     BECMG 1814/1816 33012G22KT P6SM NSW 
     FM181800 33012G22KT P6SM FEW012 SCT100 RMK FCST BASED ON AUTO OBS. NXT FCST
BY 181800Z
       
CYXU 181700Z 33010KT 15SM FEW020 BKN074 M07/M13 A3013 RMK SC1AC4 SLP222
CYXU 181600Z 36009KT 310V010 15SM SCT014 SCT020 SCT220 M08/M12 A3010 RMK CF3SC1CI1 CI TR SLP213
CYXU 181535Z 36007KT 6SM VCSH SCT012 BKN023 M08/M12 A3008 RMK CF3SC2 SLP205
CYXU 181500Z 34008KT 6SM -SN FEW022 BKN032 M08/M12 A3006 RMK CF1SC6 SLP197
CYXU 181456Z 34008KT 10SM -SN FEW022 BKN032 M08/M12 A3006 RMK CF1SC6 SLP197
CYXU 181444Z 35008KT 2 1/2SM -SN FEW012 BKN035 M08/M12 A3005 RMK SF1SC6 SF TR SLP195
TAF AMD CYXU 181343Z 1813/1912 35010KT 2SM -SN OVC020 
     TEMPO 1813/1815 6SM -SN OVC025 
     FM181500 01010KT 5SM -SN OVC030 
     TEMPO 1815/1817 P6SM -SN SCT030 OVC080 
     FM181700 35012KT P6SM SCT020 BKN100 
     FM182100 33012KT P6SM FEW020 SCT100 
     BECMG 1900/1902 VRB03KT 
     FM190600 VRB03KT P6SM BKN020 RMK NXT FCST BY 181800Z
       
CYHM 181700Z 34004KT 300V010 15SM BKN019 BKN056 M07/M11 A3011 RMK SC5SC2 SLP213
CYHM 181600Z 34006KT 8SM -SN BKN015 BKN035 M08/M11 A3007 RMK SC6SC1 SLP200
CYHM 181512Z 01006KT 5SM -SN FEW014 OVC026 M09/M12 A3006 RMK SF2SC6 SLP194
CYHM 181500Z 36008KT 2 1/2SM -SN SCT013 OVC022 M09/M12 A3005 RMK SN2SF2SC4 SLP191
TAF AMD CYHM 181318Z 1813/1912 35010KT 1SM -SN OVC020 
     TEMPO 1813/1815 4SM -SN OVC025 
     FM181500 35010KT 6SM -SN BKN025 OVC070 
     TEMPO 1815/1819 3SM -SN BKN020 
     PROB30 1815/1819 2SM -SN 
     FM181900 34006KT P6SM -SHSN BKN030 BKN090 
     FM182100 31010KT P6SM FEW030 
     BECMG 1902/1904 29007KT 
     FM190900 22005KT P6SM BKN015 RMK NXT FCST BY 181800Z
       
CYQA 181700Z AUTO 31009G16KT 9SM FEW140 M10/M17 A3009 RMK ICG SLP213
CYQA 181600Z AUTO 34010KT 9SM SCT090 BKN120 M10/M18 A3008 RMK ICG SLP208
CYQA 181500Z AUTO 34005KT 320V090 9SM CLR M11/M18 A3006 RMK ICG INTMT SLP201
TAF CYQA 181238Z 1813/1901 36007KT P6SM BKN100 
     FM182000 32008KT P6SM SCT140 RMK FCST BASED ON AUTO OBS. NXT FCST BY
182000Z
       
CYVV 181700Z 02008KT 330V060 10SM -SN BKN016 OVC250 M10/M14 A3019 RMK SC6CI2 SLP242
CYVV 181640Z 01009G16KT 340V050 10SM -SN BKN016 OVC250 M10/M14 A3019 RMK SC5CI3 SLP240
CYVV 181600Z 02008G15KT 330V040 15SM SCT016 OVC250 M10/M15 A3016 RMK SC4CI4 SLP231
CYVV 181500Z 01009G15KT 340V040 15SM SCT018 OVC250 M10/M15 A3013 RMK SC4CI4 SLP220
TAF CYVV 181338Z 1814/1824 04010G20KT P6SM FEW020 BKN080 
     TEMPO 1814/1821 BKN020 
     BECMG 1815/1817 36012KT 
     FM182100 34006KT P6SM SCT140 
     BECMG 1822/1824 VRB03KT RMK NXT FCST BY 182000Z
       
CYZR 181705Z AUTO 36014KT 9SM -SN SCT022 M05/M09 A3019 RMK SLP236
CYZR 181700Z AUTO 02013KT 9SM FEW024 M05/M09 A3019 RMK SLP235
CYZR 181600Z AUTO 01013KT 9SM BKN070 M06/M10 A3016 RMK SLP224
CYZR 181500Z AUTO 02013KT 9SM SCT070 M06/M11 A3012 RMK SLP211
TAF CYZR 181339Z 1814/1902 01010G20KT P6SM SCT015 BKN050 
     TEMPO 1814/1824 BKN015 BKN050 
     FM190000 36008KT P6SM SCT030 RMK FCST BASED ON AUTO OBS. NXT FCST BY
182000Z
       
CYSN 181700Z 34008KT 10SM -SN FEW009 OVC013 M06/M09 A3013 RMK SF2SC6 SLP209
CYSN 181646Z 34006KT 8SM -SN FEW009 BKN016 M06/M09 A3012 RMK SF2SC5 SLP208
CYSN 181625Z 34009KT 2 1/2SM -SN FEW009 BKN019 M06/M09 A3011 RMK SF2SC4 SLP203
CYSN 181600Z 35009KT 2SM -SN SCT013 OVC018 M06/M09 A3009 RMK SN2SF2NS4 VIS VRB 1-3 SLP197
CYSN 181500Z 35009KT 1 1/2SM -SN OVC020 M06/M08 A3006 RMK SN4NS4 /S03/ VIS VRB 1-2 SLP188
CYSN 181436Z 35009KT 2SM -SN OVC015 M06/M08 A3005 RMK SN4SF4 SLP181
TAF CYSN 181338Z 1814/1902 01012G22KT 11/2SM -SN OVC015 
     TEMPO 1814/1817 3SM -SN OVC030 
     FM181700 34015KT P6SM -SN BKN030 
     TEMPO 1817/1819 3SM -SN BKN020 
     PROB30 1817/1818 2SM -SN 
     FM181900 33015KT P6SM FEW030 
     TEMPO 1819/1821 P6SM -SN BKN030 
     BECMG 1822/1824 34010KT RMK NXT FCST BY 182000Z
       
CWLS 181700Z AUTO 35009KT M09/M13 RMK AO1 SOG 17 1030 SLP217 T10901134 50002
CWLS 181600Z AUTO 35008KT M09/M14 RMK AO1 SOG 17 1030 SLP207 T10851137 50002
CWLS 181500Z AUTO 36007KT M10/M14 RMK AO1 SOG 17 1034 SLP198 T11021138 50002
CWCO 181700Z AUTO 34011KT M08/M13 RMK AO1 SLP233 T10751131 51030
CWCO 181600Z AUTO 35008KT M08/M14 RMK AO1 SLP224 T10811144 51034
CWCO 181500Z AUTO 01008KT M09/M14 RMK AO1 SLP214 T10861135 51036